Time;durP1;ratioP1;P1;durP2;ratioP2;P2;SDS_P1;SDS_P2;PMS_P1;PMS_P2;Temp;Humidity;BMP_temperature;BMP_pressure;BME280_temperature;BME280_humidity;BME280_pressure;Samples;Min_cycle;Max_cycle;Signal;HPM_P1;HPM_P2
2021/06/23 00:00:28;;;;;;;6.55;5.05;;;11.50;99.90;;;;;;5071337;28;20530;-74
2021/06/23 00:02:54;;;;;;;8.98;5.60;;;11.60;99.90;;;;;;5091150;28;20035;-74
2021/06/23 00:05:21;;;;;;;9.10;5.20;;;11.60;99.90;;;;;;5091571;28;20085;-74
2021/06/23 00:07:47;;;;;;;7.70;4.82;;;11.50;99.90;;;;;;5085268;28;20108;-74
2021/06/23 00:10:14;;;;;;;8.43;5.40;;;11.50;99.90;;;;;;5091373;28;20497;-74
2021/06/23 00:12:41;;;;;;;8.05;5.20;;;11.60;99.90;;;;;;5090494;28;20036;-74
2021/06/23 00:15:12;;;;;;;7.88;5.55;;;11.60;99.90;;;;;;5091316;28;20060;-74
2021/06/23 00:17:37;;;;;;;7.95;5.38;;;11.60;99.90;;;;;;5071301;28;20314;-74
2021/06/23 00:20:05;;;;;;;8.95;5.10;;;11.60;99.90;;;;;;5090930;28;20044;-74
2021/06/23 00:22:31;;;;;;;9.02;5.55;;;11.60;99.90;;;;;;5091133;28;20028;-74
2021/06/23 00:24:56;;;;;;;7.68;5.28;;;11.60;99.90;;;;;;5072400;28;20036;-74
2021/06/23 00:27:22;;;;;;;10.52;5.60;;;11.60;99.90;;;;;;5091215;28;20048;-74
2021/06/23 00:29:47;;;;;;;8.90;5.38;;;11.60;99.90;;;;;;5090981;28;20069;-74
2021/06/23 00:32:19;;;;;;;11.63;6.10;;;11.60;99.90;;;;;;5091227;28;20047;-74
2021/06/23 00:34:45;;;;;;;9.48;6.10;;;11.60;99.90;;;;;;5088906;28;20036;-73
2021/06/23 00:37:10;;;;;;;10.07;6.20;;;11.60;99.90;;;;;;5091107;28;20044;-74
2021/06/23 00:39:36;;;;;;;12.90;6.50;;;11.70;99.90;;;;;;5095189;28;20031;-74
2021/06/23 00:42:02;;;;;;;8.00;5.78;;;11.70;99.90;;;;;;5090126;28;20040;-74
2021/06/23 00:44:31;;;;;;;11.77;6.82;;;11.70;99.90;;;;;;5090998;28;20044;-74
2021/06/23 00:46:56;;;;;;;9.43;5.90;;;11.70;99.90;;;;;;5090572;28;20123;-74
2021/06/23 00:49:24;;;;;;;7.63;6.13;;;11.70;99.90;;;;;;5090723;28;20107;-75
2021/06/23 00:51:50;;;;;;;9.95;5.93;;;11.80;99.90;;;;;;5073637;28;20032;-75
2021/06/23 00:54:15;;;;;;;8.77;5.35;;;11.80;99.90;;;;;;5090823;28;20034;-75
2021/06/23 00:56:42;;;;;;;7.68;6.15;;;11.80;99.90;;;;;;5090310;28;20028;-75
2021/06/23 00:59:09;;;;;;;13.82;5.68;;;11.70;99.90;;;;;;5079810;28;20044;-75
2021/06/23 01:01:39;;;;;;;8.38;5.72;;;11.70;99.90;;;;;;5090426;28;20101;-75
2021/06/23 01:04:05;;;;;;;8.32;5.82;;;11.70;99.90;;;;;;5089664;28;20482;-75
2021/06/23 01:06:32;;;;;;;6.85;5.43;;;11.80;99.90;;;;;;5072291;28;20081;-74
2021/06/23 01:08:59;;;;;;;9.77;5.95;;;11.80;99.90;;;;;;5092211;28;20443;-75
2021/06/23 01:11:28;;;;;;;9.25;5.53;;;11.80;99.90;;;;;;5094524;28;20046;-74
2021/06/23 01:14:05;;;;;;;6.63;5.18;;;11.80;99.90;;;;;;5091946;28;20028;-75
2021/06/23 01:16:34;;;;;;;8.60;5.35;;;11.80;99.90;;;;;;5075479;28;20032;-75
2021/06/23 01:19:05;;;;;;;10.40;5.13;;;11.80;99.90;;;;;;5092731;28;20562;-75
2021/06/23 01:21:31;;;;;;;8.87;4.97;;;11.80;99.90;;;;;;5079303;28;20039;-74
2021/06/23 01:23:57;;;;;;;10.95;5.15;;;11.80;99.90;;;;;;5093680;28;20285;-74
2021/06/23 01:26:23;;;;;;;10.52;5.82;;;11.80;99.90;;;;;;5083651;28;20173;-75
2021/06/23 01:28:49;;;;;;;10.13;5.22;;;11.80;99.90;;;;;;5093825;28;20130;-74
2021/06/23 01:31:16;;;;;;;9.88;5.20;;;11.90;99.90;;;;;;5092625;28;20040;-75
2021/06/23 01:33:43;;;;;;;7.10;5.28;;;11.90;99.90;;;;;;5093994;28;20068;-75
2021/06/23 01:36:09;;;;;;;7.13;5.03;;;11.90;99.90;;;;;;5087752;28;20044;-75
2021/06/23 01:38:34;;;;;;;8.13;5.43;;;11.80;99.90;;;;;;5074230;28;20028;-75
2021/06/23 01:41:00;;;;;;;7.75;4.50;;;11.90;99.90;;;;;;5103460;28;20036;-75
2021/06/23 01:43:26;;;;;;;9.63;5.25;;;11.80;99.90;;;;;;5093611;28;20036;-75
2021/06/23 01:45:52;;;;;;;7.72;4.72;;;11.80;99.90;;;;;;5094004;28;20499;-75
2021/06/23 01:48:19;;;;;;;9.30;5.18;;;11.80;99.90;;;;;;5074596;28;20043;-75
2021/06/23 01:51:02;;;;;;;7.60;4.90;;;11.80;99.90;;;;;;5093628;28;20565;-75
2021/06/23 01:53:30;;;;;;;10.50;4.97;;;11.80;99.90;;;;;;5086367;28;20058;-75
2021/06/23 01:55:56;;;;;;;9.57;4.72;;;11.80;99.90;;;;;;5093189;28;20040;-75
2021/06/23 01:58:23;;;;;;;7.82;5.45;;;11.80;99.90;;;;;;5081954;28;20046;-75
2021/06/23 02:01:05;;;;;;;8.10;4.50;;;11.80;99.90;;;;;;5069992;28;20035;-75
2021/06/23 02:03:45;;;;;;;8.98;4.60;;;11.90;99.90;;;;;;5092327;28;20036;-75
2021/06/23 02:06:22;;;;;;;6.47;4.80;;;11.90;99.90;;;;;;5089578;28;20062;-74
2021/06/23 02:09:09;;;;;;;5.65;4.18;;;11.90;99.90;;;;;;5092782;28;20082;-75
2021/06/23 02:11:47;;;;;;;8.88;4.70;;;11.90;99.90;;;;;;5087136;28;20450;-75
2021/06/23 02:14:32;;;;;;;9.35;5.05;;;11.90;99.90;;;;;;5092664;28;20040;-75
2021/06/23 02:17:00;;;;;;;6.55;4.60;;;11.90;99.90;;;;;;5092868;28;20036;-74
2021/06/23 02:19:26;;;;;;;8.90;5.20;;;11.90;99.90;;;;;;5074888;28;20047;-75
2021/06/23 02:21:52;;;;;;;8.55;5.10;;;11.90;99.90;;;;;;5093643;28;20032;-75
2021/06/23 02:24:18;;;;;;;8.73;5.40;;;11.90;99.90;;;;;;5093183;28;20058;-73
2021/06/23 02:26:44;;;;;;;5.90;5.18;;;11.90;99.90;;;;;;5092976;28;20075;-73
2021/06/23 02:29:10;;;;;;;6.90;4.93;;;11.90;99.90;;;;;;5091416;28;20051;-72
2021/06/23 02:31:39;;;;;;;8.07;5.55;;;11.90;99.90;;;;;;5089363;28;20469;-73
2021/06/23 02:34:13;;;;;;;6.82;5.25;;;11.90;99.90;;;;;;5092344;28;20035;-73
2021/06/23 02:36:39;;;;;;;9.48;5.25;;;12.00;99.90;;;;;;5093011;28;20121;-74
2021/06/23 02:39:06;;;;;;;10.00;6.13;;;12.00;99.90;;;;;;5093807;28;20038;-74
2021/06/23 02:41:33;;;;;;;6.38;5.28;;;12.00;99.90;;;;;;5092817;28;20032;-74
2021/06/23 02:44:01;;;;;;;7.05;5.28;;;12.00;99.90;;;;;;5092844;28;20496;-74
2021/06/23 02:46:27;;;;;;;8.55;5.35;;;12.00;99.90;;;;;;5074661;28;20040;-74
2021/06/23 02:48:53;;;;;;;6.80;6.15;;;12.00;99.90;;;;;;5090938;28;20035;-74
2021/06/23 02:51:22;;;;;;;6.50;5.25;;;12.10;99.90;;;;;;5092524;28;20040;-74
2021/06/23 02:53:49;;;;;;;9.18;5.40;;;12.10;99.90;;;;;;5088332;28;20036;-74
2021/06/23 02:56:17;;;;;;;7.90;5.30;;;12.10;99.90;;;;;;5073574;28;20118;-74
2021/06/23 02:58:43;;;;;;;6.85;5.47;;;12.10;99.90;;;;;;5090537;28;20446;-75
2021/06/23 03:01:14;;;;;;;9.13;5.18;;;12.10;99.90;;;;;;5069317;28;20044;-74
2021/06/23 03:03:42;;;;;;;8.20;5.55;;;12.10;99.90;;;;;;5092339;28;20047;-74
2021/06/23 03:06:09;;;;;;;8.40;6.15;;;12.10;99.90;;;;;;5092137;28;20500;-74
2021/06/23 03:08:36;;;;;;;9.85;5.82;;;12.10;99.90;;;;;;5083677;28;20032;-74
2021/06/23 03:11:03;;;;;;;12.02;6.47;;;12.10;99.90;;;;;;5091595;28;20117;-74
2021/06/23 03:13:29;;;;;;;8.38;6.00;;;12.10;99.90;;;;;;5092469;28;20032;-74
2021/06/23 03:15:57;;;;;;;6.55;5.82;;;12.10;99.90;;;;;;5091949;28;20059;-74
2021/06/23 03:18:23;;;;;;;9.15;6.47;;;12.00;99.90;;;;;;5071828;28;20044;-75
2021/06/23 03:20:49;;;;;;;7.95;7.10;;;12.00;99.90;;;;;;5092009;28;20049;-74
2021/06/23 03:23:16;;;;;;;14.15;6.60;;;12.10;99.90;;;;;;5091894;28;20067;-74
2021/06/23 03:25:41;;;;;;;6.90;6.20;;;12.10;99.90;;;;;;5091333;28;20107;-74
2021/06/23 03:28:07;;;;;;;11.35;7.03;;;12.10;99.90;;;;;;5091669;28;20139;-74
2021/06/23 03:30:33;;;;;;;7.70;6.80;;;12.10;99.90;;;;;;5072724;28;20081;-74
2021/06/23 03:32:59;;;;;;;7.00;6.28;;;12.20;99.90;;;;;;5091228;28;20028;-73
2021/06/23 03:35:25;;;;;;;8.70;6.72;;;12.20;99.90;;;;;;5089529;28;20034;-74
2021/06/23 03:37:53;;;;;;;9.68;6.85;;;12.20;99.90;;;;;;5091741;28;20051;-73
2021/06/23 03:40:20;;;;;;;9.82;6.70;;;12.20;99.90;;;;;;5093230;28;20049;-73
2021/06/23 03:42:46;;;;;;;7.43;6.57;;;12.20;99.90;;;;;;5091403;28;20032;-73
2021/06/23 03:45:14;;;;;;;8.65;6.63;;;12.30;99.90;;;;;;5091786;28;20748;-73
2021/06/23 03:47:40;;;;;;;12.50;7.30;;;12.30;99.90;;;;;;5073549;28;20040;-73
2021/06/23 03:50:07;;;;;;;9.60;7.00;;;12.30;99.90;;;;;;5089799;28;20036;-73
2021/06/23 03:52:33;;;;;;;9.57;6.85;;;12.30;99.90;;;;;;5088050;28;20029;-73
2021/06/23 03:55:01;;;;;;;8.25;6.82;;;12.30;99.90;;;;;;5091239;28;20123;-73
2021/06/23 03:57:28;;;;;;;11.02;7.47;;;12.40;99.90;;;;;;5068854;28;20042;-73
2021/06/23 03:59:53;;;;;;;11.18;6.60;;;12.40;99.90;;;;;;5091482;28;20036;-73
2021/06/23 04:02:21;;;;;;;8.30;6.25;;;12.40;99.90;;;;;;5071323;28;20109;-73
2021/06/23 04:04:47;;;;;;;7.10;6.10;;;12.50;99.90;;;;;;5073555;28;20470;-73
2021/06/23 04:07:14;;;;;;;9.13;6.05;;;12.40;99.90;;;;;;5091336;28;20039;-73
2021/06/23 04:09:40;;;;;;;9.73;6.15;;;12.40;99.90;;;;;;5089219;28;20434;-73
2021/06/23 04:12:06;;;;;;;6.85;6.07;;;12.50;99.90;;;;;;5072616;28;20035;-73
2021/06/23 04:14:32;;;;;;;10.68;7.28;;;12.50;99.90;;;;;;5091186;28;20492;-74
2021/06/23 04:16:57;;;;;;;10.05;6.15;;;12.50;99.90;;;;;;5091171;28;20040;-74
2021/06/23 04:19:24;;;;;;;8.82;6.53;;;12.60;99.90;;;;;;5089782;28;20034;-73
2021/06/23 04:21:50;;;;;;;6.93;6.32;;;12.60;99.90;;;;;;5098548;28;20028;-73
2021/06/23 04:24:15;;;;;;;8.40;6.18;;;12.60;99.90;;;;;;5071159;28;20041;-73
2021/06/23 04:26:43;;;;;;;12.48;6.22;;;12.60;99.90;;;;;;5072627;28;20146;-74
2021/06/23 04:29:09;;;;;;;8.52;6.43;;;12.70;99.90;;;;;;5090451;28;20083;-74
2021/06/23 04:31:40;;;;;;;8.13;5.70;;;12.70;99.90;;;;;;5083477;28;20069;-74
2021/06/23 04:34:06;;;;;;;8.48;5.68;;;12.70;99.90;;;;;;5091056;28;20039;-73
2021/06/23 04:36:31;;;;;;;10.35;5.00;;;12.70;99.90;;;;;;5090729;28;20450;-73
2021/06/23 04:38:57;;;;;;;8.98;4.95;;;12.70;99.90;;;;;;5090459;28;20040;-73
2021/06/23 04:41:23;;;;;;;10.48;5.07;;;12.70;99.90;;;;;;5088855;28;20039;-73
2021/06/23 04:43:49;;;;;;;9.32;5.43;;;12.80;99.90;;;;;;5093033;28;20118;-74
2021/06/23 04:46:14;;;;;;;8.68;4.85;;;12.70;99.90;;;;;;5095036;28;20355;-74
2021/06/23 04:48:40;;;;;;;8.43;5.20;;;12.70;99.90;;;;;;5094790;28;20381;-74
2021/06/23 04:51:06;;;;;;;9.48;4.70;;;12.80;99.90;;;;;;5094918;28;20490;-74
2021/06/23 04:53:31;;;;;;;8.88;4.40;;;12.70;99.90;;;;;;5077121;28;20163;-74
2021/06/23 04:55:58;;;;;;;11.32;5.07;;;12.80;99.90;;;;;;5075112;28;20048;-74
2021/06/23 04:58:24;;;;;;;10.30;4.97;;;12.80;99.90;;;;;;5089843;28;20044;-74
2021/06/23 05:00:50;;;;;;;6.78;4.13;;;12.90;99.90;;;;;;5090197;28;20040;-73
2021/06/23 05:03:16;;;;;;;9.32;4.50;;;12.90;99.90;;;;;;5071439;28;20056;-74
2021/06/23 05:05:42;;;;;;;6.22;4.57;;;12.90;99.90;;;;;;5092398;28;20062;-74
2021/06/23 05:08:07;;;;;;;7.30;4.60;;;12.90;99.90;;;;;;5076419;28;20166;-73
2021/06/23 05:10:33;;;;;;;9.73;5.20;;;13.00;99.90;;;;;;5073779;28;20111;-74
2021/06/23 05:13:00;;;;;;;9.68;4.82;;;13.00;99.90;;;;;;5086721;28;20048;-74
2021/06/23 05:15:26;;;;;;;9.02;4.68;;;13.00;99.90;;;;;;5080326;28;20107;-73
2021/06/23 05:17:52;;;;;;;10.35;4.40;;;13.10;99.90;;;;;;5084969;28;20115;-74
2021/06/23 05:20:18;;;;;;;8.07;4.43;;;13.10;99.90;;;;;;5069284;28;20414;-73
2021/06/23 05:22:48;;;;;;;7.80;5.22;;;13.20;99.90;;;;;;5066403;28;20039;-73
2021/06/23 05:25:14;;;;;;;12.05;4.38;;;13.30;99.90;;;;;;5074390;28;20024;-73
2021/06/23 05:27:40;;;;;;;7.70;4.10;;;13.30;99.90;;;;;;5094321;28;20043;-73
2021/06/23 05:30:06;;;;;;;9.18;4.05;;;13.40;99.90;;;;;;5078645;28;20397;-73
2021/06/23 05:32:32;;;;;;;11.65;4.72;;;13.50;99.90;;;;;;5084822;28;20479;-73
2021/06/23 05:34:58;;;;;;;6.78;3.85;;;13.60;99.90;;;;;;5092370;28;20035;-75
2021/06/23 05:37:24;;;;;;;8.15;3.40;;;13.70;99.90;;;;;;5092264;28;20036;-74
2021/06/23 05:39:50;;;;;;;10.05;3.70;;;13.80;99.90;;;;;;5094124;28;20126;-73
2021/06/23 05:42:15;;;;;;;10.38;3.70;;;13.90;99.90;;;;;;5096832;28;20047;-73
2021/06/23 05:44:41;;;;;;;7.63;3.63;;;14.00;99.90;;;;;;5093652;28;20119;-73
2021/06/23 05:47:07;;;;;;;9.23;3.38;;;14.00;99.90;;;;;;5094043;28;20067;-73
2021/06/23 05:49:32;;;;;;;10.35;3.80;;;13.90;99.90;;;;;;5075455;28;20120;-73
2021/06/23 05:51:59;;;;;;;8.35;4.03;;;14.00;99.90;;;;;;5090635;28;20036;-74
2021/06/23 05:54:24;;;;;;;8.13;3.38;;;14.10;99.90;;;;;;5067082;28;20040;-73
2021/06/23 05:56:50;;;;;;;6.32;2.95;;;14.10;99.90;;;;;;5075730;28;20092;-73
2021/06/23 05:59:16;;;;;;;9.10;3.63;;;14.20;99.90;;;;;;5093230;28;20040;-73
2021/06/23 06:01:42;;;;;;;9.18;3.30;;;14.20;99.90;;;;;;5082107;28;20048;-73
2021/06/23 06:04:08;;;;;;;9.70;3.25;;;14.30;99.90;;;;;;5065571;28;20098;-73
2021/06/23 06:06:35;;;;;;;11.20;4.40;;;14.40;99.90;;;;;;5093671;28;20036;-73
2021/06/23 06:09:00;;;;;;;10.45;3.22;;;14.60;99.90;;;;;;5090965;28;20115;-70
2021/06/23 06:11:26;;;;;;;8.63;3.13;;;14.70;99.90;;;;;;5091209;28;20115;-74
2021/06/23 06:13:52;;;;;;;7.90;2.97;;;14.80;99.90;;;;;;5093524;28;20040;-74
2021/06/23 06:16:17;;;;;;;6.78;3.25;;;15.00;99.90;;;;;;5089725;28;20035;-74
2021/06/23 06:18:45;;;;;;;6.97;2.33;;;15.10;99.90;;;;;;5087905;28;20398;-74
2021/06/23 06:21:11;;;;;;;7.53;2.90;;;15.10;99.90;;;;;;5073458;28;20035;-74
2021/06/23 06:23:37;;;;;;;7.43;2.80;;;15.10;99.90;;;;;;5087656;28;20036;-74
2021/06/23 06:26:03;;;;;;;7.93;2.85;;;15.20;99.90;;;;;;5087795;28;20469;-74
2021/06/23 06:28:28;;;;;;;8.27;2.80;;;15.10;99.90;;;;;;5081445;28;20040;-73
2021/06/23 06:30:54;;;;;;;7.43;3.00;;;15.10;99.90;;;;;;5080226;28;20060;-74
2021/06/23 06:33:21;;;;;;;7.68;3.38;;;15.20;99.90;;;;;;5071722;28;20028;-74
2021/06/23 06:35:46;;;;;;;10.60;3.05;;;15.20;99.90;;;;;;5092534;28;20063;-74
2021/06/23 06:38:12;;;;;;;9.93;3.60;;;15.30;99.90;;;;;;5092354;28;20033;-74
2021/06/23 06:40:38;;;;;;;6.35;2.80;;;15.30;99.90;;;;;;5093789;28;20485;-74
2021/06/23 06:43:04;;;;;;;6.50;2.60;;;15.50;99.90;;;;;;5086268;28;20043;-73
2021/06/23 06:45:30;;;;;;;5.65;2.35;;;15.60;99.90;;;;;;5082537;28;20036;-73
2021/06/23 06:47:56;;;;;;;6.50;2.63;;;15.70;99.90;;;;;;5089338;28;20036;-73
2021/06/23 06:50:22;;;;;;;5.05;2.80;;;15.80;99.90;;;;;;5071845;28;20489;-73
2021/06/23 06:52:48;;;;;;;8.10;3.00;;;15.80;99.90;;;;;;5092159;28;20039;-73
2021/06/23 06:55:20;;;;;;;5.03;2.60;;;15.80;99.90;;;;;;5091386;28;20082;-73
2021/06/23 06:57:47;;;;;;;4.43;2.78;;;15.80;99.90;;;;;;5073326;28;20438;-74
2021/06/23 07:00:13;;;;;;;6.35;2.65;;;15.90;99.90;;;;;;5091598;28;20036;-75
2021/06/23 07:02:39;;;;;;;5.90;2.70;;;16.10;99.90;;;;;;5085418;28;20036;-74
2021/06/23 07:05:05;;;;;;;6.75;2.50;;;16.20;99.90;;;;;;5084443;28;20101;-75
2021/06/23 07:07:31;;;;;;;10.52;2.83;;;16.20;99.40;;;;;;5088843;28;20473;-75
2021/06/23 07:09:57;;;;;;;8.23;3.10;;;16.50;99.70;;;;;;5089432;28;20036;-75
2021/06/23 07:12:22;;;;;;;8.40;2.40;;;16.50;99.90;;;;;;5090463;28;20116;-74
2021/06/23 07:14:48;;;;;;;6.50;2.10;;;16.70;99.20;;;;;;5086732;28;20469;-74
2021/06/23 07:17:14;;;;;;;8.25;2.30;;;16.90;98.00;;;;;;5092274;28;20051;-75
2021/06/23 07:19:39;;;;;;;7.40;2.05;;;17.20;98.00;;;;;;5091801;28;20051;-75
2021/06/23 07:22:05;;;;;;;8.23;2.33;;;17.60;97.60;;;;;;5080941;28;20410;-75
2021/06/23 07:24:31;;;;;;;5.47;2.28;;;18.00;97.30;;;;;;5091201;28;20441;-74
2021/06/23 07:26:59;;;;;;;9.88;2.60;;;18.40;95.10;;;;;;5091992;28;20040;-74
2021/06/23 07:29:27;;;;;;;10.10;2.53;;;18.90;95.30;;;;;;5071805;28;20058;-74
2021/06/23 07:31:57;;;;;;;7.93;2.20;;;19.40;95.50;;;;;;5090322;28;20111;-75
2021/06/23 07:36:30;;;;;;;8.32;2.63;;;19.20;92.00;;;;;;5091888;28;20040;-74
2021/06/23 07:37:09;;;;;;;9.02;2.42;;;19.50;92.90;;;;;;5091512;28;20040;-74
2021/06/23 07:39:36;;;;;;;7.43;2.38;;;19.40;93.10;;;;;;5091388;28;20079;-74
2021/06/23 07:42:03;;;;;;;6.32;2.42;;;19.40;93.80;;;;;;5091685;28;20572;-75
2021/06/23 07:44:30;;;;;;;8.57;2.58;;;19.30;92.50;;;;;;5091585;28;20127;-74
2021/06/23 07:46:59;;;;;;;7.32;2.38;;;18.70;93.60;;;;;;5086034;28;20119;-73
2021/06/23 07:49:27;;;;;;;12.60;2.70;;;19.00;92.20;;;;;;5079563;28;20445;-73
2021/06/23 08:08:21;;;;;;;9.20;2.85;;;20.30;91.20;;;;;;5079374;28;20032;-73
2021/06/23 08:10:51;;;;;;;9.48;2.30;;;20.60;91.10;;;;;;5105863;22;20408;-72
2021/06/23 08:13:18;;;;;;;7.13;2.28;;;20.40;90.90;;;;;;5087393;28;20048;-72
2021/06/23 08:15:47;;;;;;;6.28;2.10;;;20.40;91.10;;;;;;5090390;28;20055;-72
2021/06/23 08:18:19;;;;;;;7.05;2.20;;;20.20;90.80;;;;;;5086579;28;20043;-72
2021/06/23 08:20:45;;;;;;;8.90;2.60;;;19.80;92.80;;;;;;5082091;28;20043;-72
2021/06/23 08:23:11;;;;;;;11.65;2.47;;;19.30;92.00;;;;;;5091541;28;20043;-72
2021/06/23 08:25:37;;;;;;;5.95;2.10;;;19.40;91.70;;;;;;5071329;28;20032;-72
2021/06/23 08:28:03;;;;;;;5.13;2.08;;;19.70;92.40;;;;;;5072062;28;20063;-72
2021/06/23 08:30:29;;;;;;;10.88;2.78;;;19.30;91.60;;;;;;5076473;28;20469;-72
2021/06/23 08:32:56;;;;;;;10.75;2.55;;;18.80;92.00;;;;;;5086995;28;20032;-72
2021/06/23 08:35:21;;;;;;;7.32;2.05;;;18.70;92.80;;;;;;5077321;28;20171;-72
2021/06/23 08:37:47;;;;;;;7.90;2.00;;;19.00;94.10;;;;;;5071311;28;20123;-72
2021/06/23 08:40:14;;;;;;;5.57;1.95;;;19.00;93.70;;;;;;5071697;28;20032;-72
2021/06/23 08:42:41;;;;;;;8.77;2.28;;;19.00;92.80;;;;;;5075049;28;20107;-72
2021/06/23 08:45:08;;;;;;;6.47;2.00;;;19.30;93.50;;;;;;5089202;28;20107;-71
2021/06/23 08:47:42;;;;;;;8.05;2.22;;;19.50;93.20;;;;;;5088873;28;20044;-72
2021/06/23 08:50:14;;;;;;;6.97;2.28;;;19.70;92.70;;;;;;5088863;28;20035;-72
2021/06/23 08:52:40;;;;;;;8.15;2.03;;;20.00;93.20;;;;;;5098654;28;20123;-72
2021/06/23 08:55:06;;;;;;;6.25;2.28;;;19.40;92.10;;;;;;5086290;28;20481;-72
2021/06/23 08:57:35;;;;;;;5.40;2.13;;;19.80;91.80;;;;;;5087527;28;20389;-72
2021/06/23 09:00:04;;;;;;;5.82;1.60;;;19.50;91.40;;;;;;5079967;28;20635;-72
2021/06/23 09:02:30;;;;;;;6.85;2.17;;;19.60;91.00;;;;;;5077337;28;20044;-72
2021/06/23 09:05:03;;;;;;;7.20;1.75;;;19.40;91.70;;;;;;5085224;28;20541;-72
2021/06/23 09:07:45;;;;;;;4.25;1.73;;;19.20;91.30;;;;;;5075152;28;20036;-72
2021/06/23 09:10:23;;;;;;;5.15;2.10;;;18.80;92.50;;;;;;5076154;28;20496;-71
2021/06/23 09:13:03;;;;;;;6.07;2.17;;;18.70;92.20;;;;;;5087755;28;20063;-71
2021/06/23 09:15:49;;;;;;;8.30;2.38;;;18.90;92.00;;;;;;5084294;28;20095;-72
2021/06/23 09:18:17;;;;;;;4.68;1.92;;;19.30;93.10;;;;;;5088696;28;20047;-72
2021/06/23 09:20:44;;;;;;;8.82;2.38;;;18.80;91.40;;;;;;5079896;28;20121;-70
2021/06/23 09:23:11;;;;;;;7.43;2.17;;;18.70;92.00;;;;;;5083892;28;20093;-71
2021/06/23 09:25:38;;;;;;;6.25;2.30;;;18.80;93.10;;;;;;5087160;28;20448;-71
2021/06/23 09:28:12;;;;;;;3.80;1.73;;;19.00;93.10;;;;;;5089232;28;20111;-71
2021/06/23 09:30:41;;;;;;;5.93;2.08;;;18.40;92.00;;;;;;5090083;28;20099;-71
2021/06/23 09:33:22;;;;;;;5.10;2.00;;;18.00;92.50;;;;;;5073472;28;20090;-71
2021/06/23 09:36:12;;;;;;;8.47;2.03;;;17.90;93.20;;;;;;5073402;28;20095;-71
2021/06/23 09:38:43;;;;;;;9.02;1.95;;;18.10;93.30;;;;;;5076468;28;20115;-71
2021/06/23 09:41:20;;;;;;;7.18;2.20;;;18.30;92.90;;;;;;5093665;28;20040;-71
2021/06/23 09:43:50;;;;;;;8.63;2.35;;;18.20;93.50;;;;;;5093553;28;20118;-71
2021/06/23 09:46:29;;;;;;;5.60;2.08;;;18.40;93.70;;;;;;5093577;28;20035;-71
2021/06/23 09:49:24;;;;;;;6.05;2.15;;;18.60;93.10;;;;;;5091997;28;20044;-71
2021/06/23 09:52:11;;;;;;;8.02;2.22;;;18.70;94.00;;;;;;5071780;28;20087;-71
2021/06/23 09:54:49;;;;;;;7.45;2.13;;;18.60;93.60;;;;;;5089411;28;20036;-71
2021/06/23 09:57:16;;;;;;;6.85;2.00;;;18.70;92.60;;;;;;5093903;28;20051;-71
2021/06/23 09:59:47;;;;;;;8.30;2.53;;;18.70;93.50;;;;;;5093863;28;20064;-71
2021/06/23 10:02:19;;;;;;;7.28;2.00;;;18.90;93.70;;;;;;5092114;28;20085;-71
2021/06/23 10:04:45;;;;;;;6.30;2.15;;;18.60;92.20;;;;;;5075852;28;20032;-72
2021/06/23 10:07:11;;;;;;;8.93;2.50;;;18.00;92.40;;;;;;5070199;28;20032;-73
2021/06/23 10:09:37;;;;;;;10.23;2.30;;;18.00;93.40;;;;;;5085963;28;20088;-72
2021/06/23 10:12:08;;;;;;;9.02;2.50;;;18.20;93.70;;;;;;5075039;28;20040;-72
2021/06/23 10:14:47;;;;;;;6.30;2.50;;;18.30;93.50;;;;;;5092510;28;20066;-72
2021/06/23 10:17:13;;;;;;;6.28;1.95;;;18.40;94.10;;;;;;5093186;28;20047;-72
2021/06/23 10:19:41;;;;;;;5.57;2.00;;;17.90;92.70;;;;;;5091538;28;20055;-73
2021/06/23 10:22:08;;;;;;;5.22;2.05;;;17.20;93.30;;;;;;5096928;28;20046;-72
2021/06/23 10:24:35;;;;;;;4.55;2.08;;;17.40;94.60;;;;;;5113530;28;20115;-73
2021/06/23 10:27:08;;;;;;;5.53;1.73;;;17.60;94.20;;;;;;5097272;28;20062;-72
2021/06/23 10:29:35;;;;;;;8.10;2.17;;;18.00;94.80;;;;;;5092806;28;20116;-72
2021/06/23 10:32:03;;;;;;;6.05;2.30;;;18.10;93.70;;;;;;5079447;28;20502;-70
2021/06/23 10:34:29;;;;;;;4.43;1.73;;;18.40;94.30;;;;;;5082741;28;20400;-73
2021/06/23 10:36:56;;;;;;;7.90;1.90;;;18.40;93.40;;;;;;5089435;28;20043;-70
2021/06/23 10:39:27;;;;;;;6.35;1.83;;;18.60;93.00;;;;;;5066031;28;20058;-71
2021/06/23 10:42:04;;;;;;;4.15;1.80;;;18.70;92.90;;;;;;5078429;28;20094;-71
2021/06/23 10:44:36;;;;;;;5.40;2.30;;;18.90;91.40;;;;;;5088203;28;20125;-70
2021/06/23 10:47:08;;;;;;;6.53;2.40;;;19.20;93.00;;;;;;5083530;28;20071;-70
2021/06/23 10:49:51;;;;;;;6.03;2.10;;;19.30;92.40;;;;;;5087527;28;20110;-72
2021/06/23 10:52:19;;;;;;;4.55;1.95;;;19.50;91.70;;;;;;5091992;28;20040;-72
2021/06/23 10:54:48;;;;;;;4.90;2.13;;;19.10;90.70;;;;;;5078933;28;20107;-72
2021/06/23 10:57:40;;;;;;;5.43;1.90;;;18.50;91.40;;;;;;5084705;28;20067;-72
2021/06/23 11:00:18;;;;;;;6.78;2.08;;;18.90;92.80;;;;;;5083261;28;20036;-72
2021/06/23 11:02:48;;;;;;;3.88;1.90;;;19.00;91.90;;;;;;5079054;28;20123;-72
2021/06/23 11:05:42;;;;;;;5.78;2.03;;;18.60;92.30;;;;;;5072355;28;20044;-72
2021/06/23 11:08:25;;;;;;;5.80;1.98;;;18.90;92.00;;;;;;5076949;28;20044;-72
2021/06/23 11:10:52;;;;;;;6.10;1.88;;;18.80;91.60;;;;;;5061567;28;20052;-72
2021/06/23 11:13:24;;;;;;;7.00;2.10;;;19.00;92.00;;;;;;5088873;28;20031;-72
2021/06/23 11:15:51;;;;;;;;;;;18.90;91.60;;;;;;5077567;28;20032;-72
2021/06/23 11:18:34;;;;;;;6.57;2.25;;;18.80;91.40;;;;;;5092310;28;19923;-72
2021/06/23 11:21:14;;;;;;;4.45;1.90;;;19.10;91.50;;;;;;5073503;28;20040;-72
2021/06/23 11:23:51;;;;;;;8.23;2.10;;;19.10;91.20;;;;;;5087060;28;20035;-72
2021/06/23 11:26:22;;;;;;;5.35;1.83;;;18.80;91.90;;;;;;5081187;28;20047;-72
2021/06/23 11:28:55;;;;;;;6.53;1.90;;;18.90;91.80;;;;;;5092214;28;20131;-77
2021/06/23 11:31:45;;;;;;;4.00;1.70;;;18.60;91.50;;;;;;5090698;28;20075;-77
2021/06/23 11:34:31;;;;;;;7.35;2.13;;;19.00;91.20;;;;;;5066726;28;20072;-77
2021/06/23 11:36:58;;;;;;;4.63;1.90;;;19.10;91.70;;;;;;5090248;28;20040;-76
2021/06/23 11:39:24;;;;;;;5.90;1.85;;;19.40;92.50;;;;;;5084686;28;20064;-77
2021/06/23 11:41:50;;;;;;;5.53;1.80;;;19.30;91.70;;;;;;5068372;28;20067;-77
2021/06/23 11:44:15;;;;;;;6.88;1.92;;;19.60;91.30;;;;;;5067920;28;20072;-75
2021/06/23 11:46:41;;;;;;;4.47;1.80;;;19.80;91.40;;;;;;5083931;28;20036;-76
2021/06/23 11:49:06;;;;;;;7.13;1.95;;;19.50;90.80;;;;;;5074745;28;20040;-75
2021/06/23 11:51:32;;;;;;;8.15;2.00;;;19.60;90.10;;;;;;5081246;28;20737;-76
2021/06/23 11:53:58;;;;;;;5.55;2.00;;;19.70;91.40;;;;;;5085472;28;20039;-76
2021/06/23 11:56:23;;;;;;;7.80;1.85;;;19.30;90.60;;;;;;5083718;28;20036;-76
2021/06/23 11:58:49;;;;;;;5.97;2.10;;;19.20;91.30;;;;;;5075000;28;20123;-76
2021/06/23 12:01:14;;;;;;;5.80;1.75;;;19.40;91.70;;;;;;5091585;28;20039;-76
2021/06/23 12:03:40;;;;;;;5.78;1.60;;;19.40;92.20;;;;;;5091863;28;20093;-76
2021/06/23 12:06:05;;;;;;;7.68;2.05;;;19.40;91.00;;;;;;5091797;28;20040;-75
2021/06/23 12:08:31;;;;;;;4.15;1.75;;;19.50;91.70;;;;;;5091158;28;20036;-75
2021/06/23 12:10:58;;;;;;;6.82;2.28;;;19.70;92.20;;;;;;5081615;28;20060;-76
2021/06/23 12:13:24;;;;;;;5.47;2.00;;;19.20;90.50;;;;;;5089471;28;20093;-75
2021/06/23 12:15:51;;;;;;;5.32;2.30;;;19.50;91.60;;;;;;5068309;28;20024;-75
2021/06/23 12:18:17;;;;;;;7.03;2.00;;;19.60;91.80;;;;;;5088826;28;20050;-75
2021/06/23 12:20:43;;;;;;;4.07;1.77;;;19.60;91.80;;;;;;5081025;28;20454;-76
2021/06/23 12:23:11;;;;;;;5.57;1.98;;;19.50;91.60;;;;;;5091323;28;20036;-76
2021/06/23 12:25:40;;;;;;;6.28;1.75;;;19.70;91.50;;;;;;5071234;28;20082;-76
2021/06/23 12:28:07;;;;;;;5.03;1.73;;;19.10;91.00;;;;;;5079188;28;20043;-76
2021/06/23 12:30:34;;;;;;;4.70;2.05;;;19.10;91.60;;;;;;5091095;28;20485;-76
2021/06/23 12:33:03;;;;;;;4.50;1.70;;;18.80;91.50;;;;;;5072655;28;20036;-76
2021/06/23 12:35:29;;;;;;;7.28;2.10;;;19.20;92.00;;;;;;5078230;28;20062;-77
2021/06/23 12:37:56;;;;;;;3.45;1.70;;;19.30;91.50;;;;;;5091054;28;20040;-77
2021/06/23 12:40:22;;;;;;;5.45;1.92;;;19.40;91.00;;;;;;5083257;28;20063;-75
2021/06/23 12:42:51;;;;;;;5.50;2.15;;;19.00;91.10;;;;;;5084672;28;20032;-79
2021/06/23 12:45:16;;;;;;;5.43;2.20;;;18.90;91.10;;;;;;5085857;28;20461;-76
2021/06/23 12:47:42;;;;;;;4.70;2.00;;;18.60;91.60;;;;;;5089040;28;20048;-76
2021/06/23 12:50:10;;;;;;;5.88;1.80;;;18.90;91.60;;;;;;5091802;28;20062;-76
2021/06/23 12:52:36;;;;;;;4.60;1.83;;;18.40;91.50;;;;;;5077426;28;20059;-76
2021/06/23 12:55:03;;;;;;;5.78;1.88;;;18.50;91.90;;;;;;5090256;28;20068;-76
2021/06/23 12:57:28;;;;;;;5.57;2.13;;;18.70;92.10;;;;;;5085967;28;20046;-76
2021/06/23 12:59:54;;;;;;;6.57;2.00;;;18.80;92.50;;;;;;5090732;28;20032;-75
2021/06/23 13:02:20;;;;;;;4.97;2.03;;;19.00;92.70;;;;;;5071979;28;20036;-74
2021/06/23 13:04:45;;;;;;;5.20;1.75;;;19.20;92.30;;;;;;5091981;28;20055;-74
2021/06/23 13:07:11;;;;;;;4.93;1.98;;;19.10;91.70;;;;;;5070686;28;20522;-74